Time;durP1;ratioP1;P1;durP2;ratioP2;P2;SDS_P1;SDS_P2;PMS_P1;PMS_P2;Temp;Humidity;BMP_temperature;BMP_pressure;BME280_temperature;BME280_humidity;BME280_pressure;Samples;Min_cycle;Max_cycle;Signal;HPM_P1;HPM_P2
2022/10/18 00:00:05;;;;;;;74.97;40.30;;;;;;;6.60;92.54;96038.45;1688378;84;21202;-50
2022/10/18 00:02:32;;;;;;;75.05;43.00;;;;;;;6.60;92.35;96039.82;1670315;86;20967;-51
2022/10/18 00:04:59;;;;;;;90.55;42.83;;;;;;;6.58;92.46;96037.49;1669786;85;21507;-50
2022/10/18 00:07:26;;;;;;;79.75;40.67;;;;;;;6.58;92.56;96038.86;1669870;86;21506;-50
2022/10/18 00:09:52;;;;;;;83.95;43.08;;;;;;;6.53;92.29;96033.76;1698417;84;21177;-49
2022/10/18 00:12:19;;;;;;;75.83;40.08;;;;;;;6.46;92.11;96035.70;1673818;84;21126;-50
2022/10/18 00:14:50;;;;;;;79.22;40.75;;;;;;;6.39;92.61;96032.97;1703521;84;21011;-50
2022/10/18 00:17:16;;;;;;;71.25;39.25;;;;;;;6.39;92.90;96026.14;1703753;84;21022;-49
2022/10/18 00:19:43;;;;;;;97.70;46.98;;;;;;;6.40;93.03;96031.80;1703806;82;21082;-50
2022/10/18 00:22:10;;;;;;;106.45;52.58;;;;;;;6.35;92.94;96025.36;1704144;84;21159;-51
2022/10/18 00:24:37;;;;;;;88.22;44.77;;;;;;;6.36;93.37;96021.45;1703274;84;21046;-51
2022/10/18 00:27:03;;;;;;;76.33;39.42;;;;;;;6.37;93.08;96017.55;1703672;82;21063;-50
2022/10/18 00:29:30;;;;;;;61.42;36.03;;;;;;;6.40;92.86;96018.14;1703953;84;21499;-50
2022/10/18 00:31:57;;;;;;;70.12;39.70;;;;;;;6.38;92.61;96018.55;1674220;84;21569;-50
2022/10/18 00:34:23;;;;;;;69.90;38.58;;;;;;;6.27;92.40;96020.47;1703708;84;21138;-54
2022/10/18 00:36:50;;;;;;;70.67;37.53;;;;;;;6.18;92.58;96014.58;1703779;84;21027;-50
2022/10/18 00:39:19;;;;;;;79.35;38.88;;;;;;;6.12;92.81;96011.28;1703700;84;21019;-51
2022/10/18 00:41:47;;;;;;;75.87;37.70;;;;;;;6.07;92.81;96005.61;1704052;84;21071;-51
2022/10/18 00:44:19;;;;;;;85.28;40.30;;;;;;;6.04;92.96;96005.02;1703538;84;21103;-51
2022/10/18 00:46:47;;;;;;;66.25;36.35;;;;;;;6.03;92.98;96010.86;1703683;84;21249;-50
2022/10/18 00:49:22;;;;;;;66.02;36.80;;;;;;;5.97;93.02;96014.55;1703898;84;21510;-51
2022/10/18 00:52:11;;;;;;;70.10;38.65;;;;;;;5.88;93.07;96008.68;1673548;84;20967;-51
2022/10/18 00:54:42;;;;;;;64.25;37.45;;;;;;;5.81;93.32;96007.87;1703783;84;21024;-49
2022/10/18 00:57:09;;;;;;;67.50;37.15;;;;;;;5.77;93.58;96002.97;1703853;84;20963;-50
2022/10/18 00:59:36;;;;;;;64.92;34.75;;;;;;;5.76;93.81;96002.77;1703615;84;21053;-50
2022/10/18 01:02:05;;;;;;;66.55;35.75;;;;;;;5.78;94.04;96000.44;1703944;82;21015;-50
2022/10/18 01:04:32;;;;;;;66.37;35.80;;;;;;;5.78;94.04;95995.77;1703368;84;21082;-51
2022/10/18 01:07:46;;;;;;;69.90;35.35;;;;;;;5.78;94.07;96001.80;1703612;84;20978;-50
2022/10/18 01:10:24;;;;;;;65.12;33.48;;;;;;;5.79;94.20;95995.20;1697215;84;21047;-49
2022/10/18 01:13:26;;;;;;;72.17;36.05;;;;;;;5.81;94.17;95996.95;1697722;83;21232;-50
2022/10/18 01:16:25;;;;;;;71.28;35.73;;;;;;;5.78;94.12;95994.97;1640386;87;21145;-50
2022/10/18 01:19:43;;;;;;;61.80;34.18;;;;;;;5.75;94.51;95990.28;1695777;84;21114;-50
2022/10/18 01:22:18;;;;;;;60.10;33.38;;;;;;;5.72;94.67;95989.67;1697764;83;21027;-52
2022/10/18 01:25:11;;;;;;;73.78;33.40;;;;;;;5.65;94.77;95984.20;1697402;83;21090;-51
2022/10/18 01:28:00;;;;;;;62.23;32.33;;;;;;;5.65;94.94;95978.73;1697619;83;22305;-49
2022/10/18 01:30:37;;;;;;;51.18;30.35;;;;;;;5.65;95.05;95980.90;1697656;83;21019;-50
2022/10/18 01:33:25;;;;;;;51.95;29.57;;;;;;;5.65;95.11;95976.01;1697606;84;21494;-50
2022/10/18 01:36:00;;;;;;;59.53;32.80;;;;;;;5.63;95.36;95980.48;1697625;84;21066;-50
2022/10/18 01:38:27;;;;;;;53.70;30.15;;;;;;;5.57;95.39;95977.93;1697709;83;21488;-50
2022/10/18 01:40:54;;;;;;;58.23;30.35;;;;;;;5.58;95.73;95972.67;1697770;84;21218;-51
2022/10/18 01:43:21;;;;;;;53.87;29.12;;;;;;;5.65;95.99;95972.70;1697465;84;21079;-50
2022/10/18 01:45:47;;;;;;;63.83;32.58;;;;;;;5.72;96.22;95967.83;1697638;83;20983;-49
2022/10/18 01:48:14;;;;;;;68.22;38.17;;;;;;;5.78;96.13;95960.84;1697825;84;21050;-50
2022/10/18 01:50:42;;;;;;;84.55;40.78;;;;;;;5.83;96.05;95961.85;1679944;84;21082;-50
2022/10/18 01:53:26;;;;;;;81.87;40.78;;;;;;;5.84;95.66;95960.68;1697717;84;21320;-50
2022/10/18 01:56:35;;;;;;;62.05;35.35;;;;;;;5.85;95.27;95960.87;1697946;84;21033;-50
2022/10/18 01:59:19;;;;;;;54.48;28.80;;;;;;;5.86;95.10;95961.07;1643675;86;20984;-51
2022/10/18 02:02:57;;;;;;;56.33;29.63;;;;;;;5.86;94.96;95958.34;1692898;84;21472;-50
2022/10/18 02:05:45;;;;;;;165.18;71.25;;;;;;;5.83;94.94;95948.20;1692277;84;21067;-51
2022/10/18 02:08:43;;;;;;;193.22;82.57;;;;;;;5.73;94.85;95953.80;1659371;84;21020;-50
2022/10/18 02:11:13;;;;;;;155.10;65.90;;;;;;;5.67;94.77;95944.44;1666770;84;21067;-51
2022/10/18 02:13:48;;;;;;;185.03;76.17;;;;;;;5.64;94.84;95948.52;1697866;83;20987;-51
2022/10/18 02:17:28;;;;;;;169.05;71.67;;;;;;;5.62;94.81;95945.39;1697798;83;21059;-51
2022/10/18 02:33:04;;;;;;;107.87;45.63;;;;;;;5.44;95.35;95939.10;1697723;83;20971;-50
2022/10/18 02:35:35;;;;;;;125.65;56.75;;;;;;;5.31;95.51;95942.77;1697840;84;21012;-49
2022/10/18 02:38:03;;;;;;;117.03;52.83;;;;;;;5.26;95.65;95945.08;1697786;84;21091;-50
2022/10/18 02:40:29;;;;;;;91.42;47.85;;;;;;;5.24;95.81;95937.86;1680022;84;21360;-49
2022/10/18 02:42:57;;;;;;;78.28;41.05;;;;;;;5.26;95.90;95939.62;1697785;84;21035;-50
2022/10/18 02:45:24;;;;;;;87.10;43.87;;;;;;;5.30;96.39;95934.38;1697437;84;21059;-50
2022/10/18 02:47:53;;;;;;;73.70;38.88;;;;;;;5.39;96.57;95935.39;1697800;83;21019;-51
2022/10/18 02:50:20;;;;;;;59.27;31.80;;;;;;;5.38;96.21;95936.55;1697789;84;21022;-51
2022/10/18 02:52:47;;;;;;;55.38;31.60;;;;;;;5.32;95.66;95941.59;1697647;83;21265;-50
2022/10/18 02:55:13;;;;;;;59.90;33.83;;;;;;;5.24;95.46;95926.34;1679468;84;21030;-50
2022/10/18 02:57:40;;;;;;;65.75;36.45;;;;;;;5.21;95.50;95926.36;1697756;84;20980;-50
2022/10/18 03:00:09;;;;;;;72.12;41.37;;;;;;;5.16;95.43;95929.44;1697861;84;21015;-49
2022/10/18 03:02:35;;;;;;;58.28;35.23;;;;;;;5.16;95.80;95928.06;1697842;84;21063;-50
2022/10/18 03:05:03;;;;;;;65.25;37.20;;;;;;;5.19;96.11;95927.30;1697396;83;21334;-51
2022/10/18 03:07:30;;;;;;;61.00;34.33;;;;;;;5.23;95.95;95926.75;1697670;84;21455;-50
2022/10/18 03:09:57;;;;;;;55.25;32.78;;;;;;;5.25;95.74;95926.55;1700772;84;21016;-49
2022/10/18 03:12:24;;;;;;;61.23;34.00;;;;;;;5.26;95.53;95926.74;1703906;84;21482;-51
2022/10/18 03:14:52;;;;;;;58.30;36.48;;;;;;;5.24;95.42;95926.34;1703823;84;21545;-50
2022/10/18 03:17:19;;;;;;;60.65;36.38;;;;;;;5.24;95.46;95924.98;1703806;82;21254;-49
2022/10/18 03:19:48;;;;;;;59.77;34.73;;;;;;;5.23;95.36;95926.75;1703433;84;21138;-49
2022/10/18 03:22:14;;;;;;;59.63;33.53;;;;;;;5.21;95.24;95926.92;1651465;84;21087;-51
2022/10/18 03:24:42;;;;;;;56.65;33.10;;;;;;;5.18;95.18;95923.00;1703779;84;21423;-50
2022/10/18 03:27:08;;;;;;;60.63;33.25;;;;;;;5.13;95.29;95922.62;1703536;84;21236;-51
2022/10/18 03:29:35;;;;;;;62.67;36.73;;;;;;;5.12;95.55;95917.73;1703997;84;21522;-50
2022/10/18 03:32:02;;;;;;;62.03;33.78;;;;;;;5.06;95.48;95919.27;1703589;84;21515;-50
2022/10/18 03:34:30;;;;;;;52.73;32.20;;;;;;;5.01;95.52;95925.08;1703549;84;21319;-50
2022/10/18 03:36:57;;;;;;;55.23;32.80;;;;;;;4.96;95.63;95922.72;1703829;84;21007;-50
2022/10/18 03:39:23;;;;;;;62.23;36.30;;;;;;;4.98;95.68;95927.20;1703788;82;21062;-51
2022/10/18 03:41:50;;;;;;;50.90;32.03;;;;;;;5.02;96.21;95921.21;1703895;84;21176;-50
2022/10/18 03:44:17;;;;;;;44.85;29.15;;;;;;;5.08;96.12;95923.76;1703541;84;21058;-50
2022/10/18 03:46:43;;;;;;;60.25;33.25;;;;;;;5.04;95.64;95918.88;1703552;84;21070;-51
2022/10/18 03:49:10;;;;;;;59.93;32.45;;;;;;;4.94;95.30;95911.42;1703670;84;21079;-50
2022/10/18 03:51:37;;;;;;;55.50;30.45;;;;;;;4.89;95.51;95911.79;1703789;84;21575;-52
2022/10/18 03:54:05;;;;;;;51.75;32.10;;;;;;;4.86;95.28;95911.77;1703714;84;20991;-51
2022/10/18 03:56:31;;;;;;;53.60;31.05;;;;;;;4.80;95.29;95909.98;1703701;84;20979;-51
2022/10/18 03:58:58;;;;;;;93.42;33.48;;;;;;;4.74;95.36;95906.63;1673593;84;21042;-51
2022/10/18 04:01:25;;;;;;;53.30;27.90;;;;;;;4.72;95.67;95904.87;1673884;84;21022;-50
2022/10/18 04:03:51;;;;;;;43.75;26.85;;;;;;;4.69;95.65;95903.70;1703678;84;21071;-50
2022/10/18 04:06:18;;;;;;;44.13;29.00;;;;;;;4.62;95.48;95900.16;1673644;84;21919;-51
2022/10/18 04:08:45;;;;;;;42.80;27.25;;;;;;;4.60;95.58;95897.80;1703572;84;21570;-50
2022/10/18 04:11:12;;;;;;;47.83;30.27;;;;;;;4.57;95.68;95893.12;1703555;82;21448;-50
2022/10/18 04:13:38;;;;;;;47.45;30.32;;;;;;;4.55;95.77;95894.08;1673830;84;21048;-50
2022/10/18 04:16:06;;;;;;;47.25;31.60;;;;;;;4.55;96.05;95889.20;1703758;84;21531;-51
2022/10/18 04:18:34;;;;;;;64.70;35.33;;;;;;;4.55;96.18;95890.00;1703747;84;21290;-51
2022/10/18 04:21:01;;;;;;;58.42;34.92;;;;;;;4.57;96.21;95890.39;1703790;82;20955;-51
2022/10/18 04:23:29;;;;;;;61.68;36.60;;;;;;;4.63;96.28;95888.86;1703750;84;20971;-50
2022/10/18 04:25:55;;;;;;;62.80;34.38;;;;;;;4.67;96.34;95884.80;1703604;84;21015;-51
2022/10/18 04:28:22;;;;;;;140.15;74.17;;;;;;;4.71;96.36;95886.39;1673828;84;20947;-50
2022/10/18 04:30:51;;;;;;;66.02;34.73;;;;;;;4.73;96.45;95881.33;1703705;84;21151;-50
2022/10/18 04:33:18;;;;;;;62.38;32.73;;;;;;;4.73;96.35;95875.88;1673890;84;21025;-50
2022/10/18 04:35:45;;;;;;;57.43;33.35;;;;;;;4.70;96.27;95873.92;1703693;84;21010;-51
2022/10/18 04:38:15;;;;;;;55.73;30.00;;;;;;;4.74;96.34;95872.56;1703745;84;21006;-50
2022/10/18 04:40:42;;;;;;;63.15;31.33;;;;;;;4.76;96.14;95871.63;1703806;84;20951;-49
2022/10/18 04:43:08;;;;;;;55.95;30.43;;;;;;;4.73;96.09;95871.80;1703571;84;21278;-51
2022/10/18 04:45:36;;;;;;;67.17;32.50;;;;;;;4.69;95.90;95868.28;1703441;84;21026;-51
2022/10/18 04:48:04;;;;;;;56.25;28.95;;;;;;;4.65;95.92;95868.84;1703622;84;21033;-56
2022/10/18 04:50:31;;;;;;;60.50;29.65;;;;;;;4.65;95.83;95870.78;1703773;84;21033;-59
2022/10/18 04:52:57;;;;;;;80.32;41.98;;;;;;;4.63;95.80;95860.84;1703686;84;21003;-54
2022/10/18 04:55:24;;;;;;;101.53;49.58;;;;;;;4.63;95.96;95867.66;1703559;84;21265;-49
2022/10/18 04:57:52;;;;;;;78.50;40.33;;;;;;;4.63;95.94;95869.78;1703635;84;21067;-50
2022/10/18 05:00:19;;;;;;;65.72;35.17;;;;;;;4.64;96.21;95876.03;1702348;84;21510;-49
2022/10/18 05:02:47;;;;;;;78.22;42.03;;;;;;;4.67;96.26;95873.33;1700731;84;21061;-49
2022/10/18 05:05:14;;;;;;;73.97;37.08;;;;;;;4.65;96.06;95875.66;1670569;84;21116;-51
2022/10/18 05:07:42;;;;;;;68.55;39.73;;;;;;;4.70;96.12;95874.48;1700840;84;21928;-51
2022/10/18 05:10:09;;;;;;;71.12;37.28;;;;;;;4.81;96.45;95867.92;1670805;84;21498;-53
2022/10/18 05:12:37;;;;;;;73.75;40.20;;;;;;;4.90;96.16;95861.55;1700556;84;21057;-51
2022/10/18 05:15:05;;;;;;;81.22;42.13;;;;;;;4.97;95.97;95868.38;1700683;84;21555;-51
2022/10/18 05:17:31;;;;;;;88.22;44.63;;;;;;;5.05;95.88;95871.35;1700993;84;21056;-50
2022/10/18 05:19:58;;;;;;;85.67;45.98;;;;;;;5.18;95.84;95866.33;1700827;84;21246;-50
2022/10/18 05:22:25;;;;;;;111.05;50.12;;;;;;;5.30;95.36;95870.84;1700446;84;21016;-52
2022/10/18 05:24:52;;;;;;;110.37;58.40;;;;;;;5.39;94.97;95869.91;1692870;82;21075;-52
2022/10/18 05:27:19;;;;;;;122.28;57.98;;;;;;;5.46;94.93;95868.54;1738686;82;21001;-51
2022/10/18 05:29:46;;;;;;;176.82;89.45;;;;;;;5.59;95.00;95867.78;1708560;82;21036;-54
2022/10/18 05:32:12;;;;;;;290.90;130.12;;;;;;;5.76;94.89;95870.34;1684831;82;21284;-52
2022/10/18 05:34:39;;;;;;;160.78;74.45;;;;;;;5.87;94.11;95867.05;1708802;82;21513;-53
2022/10/18 05:37:06;;;;;;;247.40;66.75;;;;;;;6.01;94.04;95858.88;1721453;81;21506;-52
2022/10/18 05:39:33;;;;;;;120.33;62.23;;;;;;;6.12;93.33;95861.02;1709606;82;21137;-52
2022/10/18 05:42:01;;;;;;;104.00;54.73;;;;;;;6.19;92.97;95856.91;1724325;82;20979;-53
2022/10/18 05:44:29;;;;;;;111.68;57.70;;;;;;;6.29;92.42;95861.56;1702105;82;21301;-51
2022/10/18 05:46:55;;;;;;;106.32;57.67;;;;;;;6.37;91.95;95859.03;1709485;82;21014;-53
2022/10/18 05:49:22;;;;;;;114.88;60.12;;;;;;;6.39;91.11;95860.78;1681283;82;21113;-49
2022/10/18 05:51:52;;;;;;;104.43;53.98;;;;;;;6.37;90.52;95859.03;1712589;82;21546;-52
2022/10/18 05:54:19;;;;;;;88.67;49.73;;;;;;;6.34;90.18;95861.19;1709656;82;21064;-59
2022/10/18 05:56:46;;;;;;;98.58;51.10;;;;;;;6.30;90.15;95859.05;1709430;82;21067;-53
2022/10/18 05:59:13;;;;;;;111.35;49.38;;;;;;;6.27;90.24;95862.55;1685841;82;21378;-53
2022/10/18 06:01:42;;;;;;;85.32;44.33;;;;;;;6.29;90.63;95852.80;1706795;82;21081;-56
2022/10/18 06:04:09;;;;;;;91.45;44.70;;;;;;;6.39;90.85;95857.48;1707579;82;21056;-56
2022/10/18 06:06:36;;;;;;;96.87;46.68;;;;;;;6.49;90.68;95846.33;1710929;82;22228;-53
2022/10/18 06:09:15;;;;;;;112.28;60.08;;;;;;;6.66;91.08;95845.52;1685840;82;21233;-54
2022/10/18 06:11:41;;;;;;;79.42;51.08;;;;;;;6.84;91.24;95847.58;1686243;82;21102;-53
2022/10/18 06:14:08;;;;;;;83.10;52.20;;;;;;;7.05;90.71;95857.09;1680758;83;21040;-53
2022/10/18 06:16:37;;;;;;;150.82;89.62;;;;;;;7.13;90.08;95850.59;1676784;84;21106;-53
2022/10/18 06:19:03;;;;;;;114.22;74.32;;;;;;;7.19;89.74;95850.36;1673436;84;21477;-52
2022/10/18 06:21:32;;;;;;;108.27;70.85;;;;;;;7.34;89.62;95851.84;1685494;84;21157;-55
2022/10/18 06:23:59;;;;;;;93.05;54.42;;;;;;;7.44;89.01;95844.75;1679835;84;20979;-54
2022/10/18 06:26:28;;;;;;;91.42;52.60;;;;;;;7.48;88.71;95840.06;1658090;84;21011;-55
2022/10/18 06:28:55;;;;;;;72.27;40.35;;;;;;;7.51;88.60;95841.39;1678248;83;22119;-55
2022/10/18 06:31:22;;;;;;;76.97;43.80;;;;;;;7.55;88.71;95843.51;1677482;83;21039;-53
2022/10/18 06:33:50;;;;;;;75.75;46.58;;;;;;;7.62;88.99;95840.74;1673585;84;21185;-51
2022/10/18 06:36:20;;;;;;;74.90;42.70;;;;;;;7.80;89.49;95840.03;1686435;83;21090;-53
2022/10/18 06:38:49;;;;;;;73.97;45.17;;;;;;;7.97;89.03;95830.89;1681094;83;21070;-55
2022/10/18 06:41:18;;;;;;;76.80;48.63;;;;;;;8.09;89.09;95832.36;1672236;83;21055;-57
2022/10/18 06:43:56;;;;;;;83.85;55.52;;;;;;;8.28;89.42;95838.08;1681273;83;21516;-55
2022/10/18 06:46:22;;;;;;;97.05;56.95;;;;;;;8.41;88.90;95830.91;1670812;83;21110;-57
2022/10/18 06:48:50;;;;;;;89.77;54.65;;;;;;;8.53;88.79;95833.16;1681436;83;21099;-57
2022/10/18 06:51:18;;;;;;;88.45;54.50;;;;;;;8.69;88.65;95828.47;1673823;83;21566;-54
2022/10/18 06:53:46;;;;;;;69.62;48.58;;;;;;;8.86;88.85;95825.55;1676851;83;21496;-53
2022/10/18 06:56:16;;;;;;;57.73;38.85;;;;;;;9.00;88.70;95828.10;1683371;83;21023;-54
2022/10/18 06:58:44;;;;;;;53.78;38.78;;;;;;;9.08;88.56;95822.72;1644317;85;21545;-53
2022/10/18 07:01:14;;;;;;;50.28;34.13;;;;;;;9.14;88.27;95821.07;1681358;83;21063;-55
2022/10/18 07:03:43;;;;;;;54.70;30.20;;;;;;;9.22;88.49;95819.81;1677518;83;21175;-53
2022/10/18 07:06:12;;;;;;;44.18;28.05;;;;;;;9.32;88.61;95814.75;1668474;83;21527;-57
2022/10/18 07:08:39;;;;;;;40.33;27.77;;;;;;;9.42;88.53;95819.34;1683068;83;21046;-55
2022/10/18 07:11:10;;;;;;;35.40;23.15;;;;;;;9.54;88.61;95811.89;1682739;83;22189;-58
2022/10/18 07:13:37;;;;;;;28.67;20.57;;;;;;;9.63;88.52;95806.67;1662021;84;21000;-56
2022/10/18 07:16:09;;;;;;;28.27;17.65;;;;;;;9.74;88.47;95810.02;1677572;83;21377;-57
2022/10/18 07:18:41;;;;;;;28.27;13.70;;;;;;;9.84;88.42;95804.97;1677036;83;21113;-59
2022/10/18 07:21:11;;;;;;;16.32;10.85;;;;;;;10.02;88.35;95798.01;1685409;84;20958;-56
2022/10/18 07:23:41;;;;;;;16.57;9.03;;;;;;;10.18;87.87;95798.13;1683728;83;21203;-55
2022/10/18 07:26:17;;;;;;;17.73;9.50;;;;;;;10.33;87.11;95800.06;1693531;83;21002;-56
2022/10/18 07:28:46;;;;;;;10.72;8.65;;;;;;;10.49;86.82;95798.80;1680523;83;21052;-56
2022/10/18 07:31:13;;;;;;;17.70;10.35;;;;;;;10.63;86.18;95787.51;1661454;84;21560;-57
2022/10/18 07:33:41;;;;;;;14.35;9.35;;;;;;;10.77;85.72;95786.04;1679666;83;21151;-57
2022/10/18 07:36:09;;;;;;;38.53;16.30;;;;;;;10.95;85.24;95785.09;1684861;83;21249;-56
2022/10/18 07:38:36;;;;;;;87.08;42.17;;;;;;;11.16;84.92;95780.52;1682195;83;21113;-53
2022/10/18 07:41:05;;;;;;;90.67;42.38;;;;;;;11.34;84.97;95775.41;1667606;83;21033;-55
2022/10/18 07:43:34;;;;;;;92.40;46.85;;;;;;;11.56;85.00;95775.75;1644020;85;21055;-60
2022/10/18 07:46:03;;;;;;;60.12;32.13;;;;;;;11.77;84.66;95767.78;1684508;83;21024;-58
2022/10/18 07:48:30;;;;;;;51.68;24.30;;;;;;;11.98;84.14;95767.27;1678144;83;21209;-58
2022/10/18 07:50:59;;;;;;;38.88;18.10;;;;;;;12.17;83.02;95766.39;1679396;83;21102;-56
2022/10/18 07:53:27;;;;;;;19.07;12.40;;;;;;;12.34;82.05;95763.00;1660051;83;21092;-54
2022/10/18 07:55:59;;;;;;;27.27;15.85;;;;;;;12.48;81.40;95755.11;1682035;83;21095;-53
2022/10/18 07:58:26;;;;;;;49.38;20.55;;;;;;;12.66;80.92;95760.94;1669354;83;21039;-55
2022/10/18 08:00:52;;;;;;;53.58;22.45;;;;;;;12.79;80.34;95750.72;1637604;85;21154;-55
2022/10/18 08:03:22;;;;;;;81.42;26.73;;;;;;;12.92;79.70;95744.64;1676429;83;21039;-57
2022/10/18 08:05:53;;;;;;;44.93;16.12;;;;;;;13.04;79.41;95744.70;1682447;83;21190;-53
2022/10/18 08:08:21;;;;;;;27.20;11.65;;;;;;;13.20;79.05;95745.22;1677289;83;21076;-53
2022/10/18 08:10:48;;;;;;;56.58;20.40;;;;;;;13.33;78.57;95732.20;1687200;83;21079;-57
2022/10/18 08:13:16;;;;;;;64.45;20.25;;;;;;;13.47;78.01;95740.08;1697528;83;21173;-56
2022/10/18 08:15:42;;;;;;;45.10;15.68;;;;;;;13.60;77.48;95739.48;1708407;83;21414;-54
2022/10/18 08:18:09;;;;;;;31.23;13.32;;;;;;;13.72;77.00;95735.92;1699277;83;21096;-55
2022/10/18 08:20:43;;;;;;;30.85;13.20;;;;;;;13.85;76.59;95737.45;1681136;83;21094;-56
2022/10/18 08:23:10;;;;;;;;;;;;;;;14.00;76.23;95729.49;1694396;83;21650;-55
2022/10/18 08:25:37;;;;;;;23.30;10.78;;;;;;;14.12;75.94;95725.91;1689889;83;21246;-59
2022/10/18 08:28:06;;;;;;;17.45;9.83;;;;;;;14.23;75.44;95720.23;1660879;83;21090;-57
2022/10/18 08:30:34;;;;;;;24.35;9.98;;;;;;;14.37;74.65;95724.51;1694570;83;21471;-58
2022/10/18 08:33:02;;;;;;;22.02;9.50;;;;;;;14.53;74.19;95719.57;1688078;83;21001;-55
2022/10/18 08:35:30;;;;;;;16.25;8.63;;;;;;;14.70;73.40;95713.42;1699093;82;21080;-57
2022/10/18 08:37:57;;;;;;;22.82;8.40;;;;;;;14.86;72.91;95705.52;1696451;83;21046;-56
2022/10/18 08:40:26;;;;;;;17.48;8.05;;;;;;;15.01;72.49;95696.85;1639563;84;21095;-54
2022/10/18 08:43:08;;;;;;;28.77;9.48;;;;;;;15.13;72.11;95685.69;1692723;83;21106;-54
2022/10/18 08:45:40;;;;;;;19.85;8.70;;;;;;;15.27;71.63;95682.98;1693371;83;21022;-58
2022/10/18 08:48:09;;;;;;;13.93;7.80;;;;;;;15.42;71.53;95679.25;1692304;83;21525;-56
2022/10/18 08:50:37;;;;;;;13.48;7.87;;;;;;;15.65;70.66;95673.77;1678532;83;21786;-54
2022/10/18 08:53:21;;;;;;;16.80;7.83;;;;;;;15.89;69.90;95670.63;1676640;85;21094;-55
2022/10/18 08:55:54;;;;;;;31.35;13.08;;;;;;;16.13;69.45;95668.19;1688482;83;21008;-54
2022/10/18 08:58:23;;;;;;;23.02;12.03;;;;;;;16.40;68.74;95664.85;1687069;83;21451;-55
2022/10/18 09:01:18;;;;;;;26.10;12.10;;;;;;;16.72;68.01;95659.31;1678471;83;21036;-56
2022/10/18 09:04:13;;;;;;;19.95;11.70;;;;;;;16.93;68.31;95661.89;1689527;84;21170;-56
2022/10/18 09:07:03;;;;;;;20.05;11.83;;;;;;;17.18;67.25;95652.42;1687917;84;21158;-53
2022/10/18 09:09:39;;;;;;;20.05;10.23;;;;;;;17.38;65.33;95654.88;1654218;85;21072;-57
2022/10/18 09:12:14;;;;;;;13.68;8.73;;;;;;;17.61;64.44;95642.27;1689421;84;21028;-57
2022/10/18 09:14:49;;;;;;;15.23;9.05;;;;;;;17.86;63.44;95645.36;1691941;84;21025;-58
2022/10/18 09:17:44;;;;;;;16.07;8.60;;;;;;;18.14;63.08;95641.18;1692144;84;21885;-57
2022/10/18 09:20:23;;;;;;;22.35;10.23;;;;;;;18.49;62.24;95640.80;1691698;84;21132;-56
2022/10/18 09:23:13;;;;;;;17.42;8.98;;;;;;;18.85;61.56;95638.45;1691378;84;21558;-58
2022/10/18 09:26:05;;;;;;;14.75;8.20;;;;;;;19.19;61.29;95637.08;1691305;84;21089;-54
2022/10/18 09:28:46;;;;;;;19.57;7.70;;;;;;;19.53;60.27;95625.97;1690607;84;21535;-57
2022/10/18 09:31:37;;;;;;;14.53;8.55;;;;;;;19.91;58.82;95622.99;1727065;82;21121;-56
2022/10/18 09:34:49;;;;;;;13.72;7.62;;;;;;;20.25;58.20;95623.00;1687803;83;22055;-56
2022/10/18 09:37:18;;;;;;;19.73;6.85;;;;;;;20.68;56.90;95616.41;1608809;89;21086;-55
2022/10/18 09:39:45;;;;;;;37.55;8.33;;;;;;;21.14;55.87;95616.40;1662472;85;21069;-58
2022/10/18 09:42:37;;;;;;;13.10;7.03;;;;;;;21.59;54.82;95610.68;1715067;83;21037;-56
2022/10/18 09:45:25;;;;;;;16.00;7.30;;;;;;;22.09;52.77;95601.36;1718134;83;21055;-53
2022/10/18 09:48:07;;;;;;;15.28;8.05;;;;;;;22.66;50.94;95604.70;1718311;83;21011;-52
2022/10/18 09:50:44;;;;;;;17.32;8.60;;;;;;;23.19;49.64;95587.75;1709143;83;21649;-56
2022/10/18 09:53:22;;;;;;;18.77;9.45;;;;;;;23.77;48.15;95584.56;1728939;82;20982;-56
2022/10/18 09:56:05;;;;;;;22.15;8.25;;;;;;;24.17;47.72;95579.16;1728582;82;21519;-58
2022/10/18 09:58:47;;;;;;;19.45;7.72;;;;;;;24.71;46.55;95577.41;1707066;83;21741;-54
2022/10/18 10:01:19;;;;;;;16.48;8.93;;;;;;;25.35;46.04;95569.11;1724672;82;20995;-60
2022/10/18 10:03:47;;;;;;;12.60;7.42;;;;;;;26.00;44.38;95575.47;1729487;82;21046;-56
2022/10/18 10:06:29;;;;;;;24.82;9.00;;;;;;;26.68;42.36;95571.49;1717581;83;21090;-58
2022/10/18 10:09:07;;;;;;;14.75;9.08;;;;;;;27.21;40.48;95567.70;1677431;82;21566;-56
2022/10/18 10:11:44;;;;;;;16.07;8.50;;;;;;;27.58;39.54;95563.39;1674532;83;21187;-56
2022/10/18 10:14:16;;;;;;;21.02;9.33;;;;;;;27.95;38.76;95544.91;1692234;83;21467;-56
2022/10/18 10:16:51;;;;;;;22.48;8.63;;;;;;;28.36;38.05;95546.61;1708068;83;21091;-56
2022/10/18 10:19:22;;;;;;;28.32;8.35;;;;;;;28.80;37.00;95543.59;1694011;83;21062;-58
2022/10/18 10:21:54;;;;;;;16.67;6.55;;;;;;;29.15;35.54;95535.27;1709713;83;21034;-56
2022/10/18 10:24:29;;;;;;;16.05;6.28;;;;;;;29.34;34.88;95530.18;1707761;83;21940;-58
2022/10/18 10:27:08;;;;;;;26.17;7.30;;;;;;;29.59;34.42;95524.30;1706872;83;21306;-54
2022/10/18 10:29:50;;;;;;;20.12;5.15;;;;;;;29.72;33.80;95520.72;1706816;83;21523;-55
2022/10/18 10:32:19;;;;;;;25.77;7.67;;;;;;;30.00;33.19;95517.30;1673263;84;21207;-53
2022/10/18 10:34:46;;;;;;;19.60;6.30;;;;;;;30.37;32.53;95511.78;1697672;82;21313;-55
2022/10/18 10:37:32;;;;;;;18.10;6.42;;;;;;;30.66;31.78;95507.62;1705215;83;22288;-57
2022/10/18 10:40:20;;;;;;;11.18;5.62;;;;;;;30.87;31.64;95499.06;1685590;83;21038;-55
2022/10/18 10:43:02;;;;;;;11.22;4.58;;;;;;;31.12;30.84;95491.61;1665466;84;21506;-56
2022/10/18 10:45:36;;;;;;;9.75;4.03;;;;;;;31.38;30.14;95485.59;1705881;83;21858;-56
2022/10/18 10:48:13;;;;;;;12.10;4.70;;;;;;;31.61;29.77;95482.09;1708342;83;22000;-56
2022/10/18 10:51:06;;;;;;;6.03;4.03;;;;;;;31.69;29.80;95481.48;1702712;83;21239;-56
2022/10/18 10:53:37;;;;;;;9.38;2.98;;;;;;;31.95;28.73;95478.23;1706635;83;21052;-57
2022/10/18 10:56:05;;;;;;;8.10;2.42;;;;;;;32.15;28.23;95468.71;1699563;83;21330;-52
2022/10/18 10:58:37;;;;;;;8.13;3.22;;;;;;;32.22;27.17;95469.41;1712686;83;21577;-51
2022/10/18 11:01:25;;;;;;;19.42;3.95;;;;;;;32.16;26.92;95465.95;1703439;83;21058;-55
2022/10/18 11:03:59;;;;;;;8.88;3.40;;;;;;;31.92;27.80;95462.30;1704531;81;21445;-57
2022/10/18 11:06:46;;;;;;;22.48;5.22;;;;;;;31.82;27.32;95459.92;1715435;83;21120;-60
2022/10/18 11:09:27;;;;;;;11.28;3.83;;;;;;;31.65;27.53;95452.64;1706224;83;21073;-56
2022/10/18 11:12:17;;;;;;;13.70;3.83;;;;;;;31.61;27.72;95450.05;1692736;83;21068;-56
2022/10/18 11:14:51;;;;;;;17.40;3.98;;;;;;;31.60;28.03;95442.84;1684282;83;21123;-54
2022/10/18 11:17:30;;;;;;;11.65;2.92;;;;;;;31.69;27.65;95443.06;1702267;83;21139;-56
2022/10/18 11:20:15;;;;;;;6.67;2.92;;;;;;;31.61;27.62;95433.72;1695144;83;21101;-57
2022/10/18 11:23:11;;;;;;;11.78;2.83;;;;;;;31.67;27.75;95425.80;1664408;83;21185;-58
2022/10/18 11:26:09;;;;;;;17.60;3.98;;;;;;;31.89;27.57;95415.05;1708710;83;21116;-57
2022/10/18 11:29:04;;;;;;;25.20;5.75;;;;;;;32.15;27.57;95413.94;1696854;83;21108;-55
2022/10/18 11:31:52;;;;;;;19.42;5.08;;;;;;;32.21;27.81;95410.92;1705105;82;21790;-58
2022/10/18 11:34:49;;;;;;;16.00;4.47;;;;;;;32.21;27.36;95403.80;1610697;87;21144;-57
2022/10/18 11:37:58;;;;;;;14.78;3.80;;;;;;;32.08;27.17;95403.31;1669080;83;21177;-56
2022/10/18 11:40:48;;;;;;;8.30;3.37;;;;;;;31.79;27.14;95406.23;1705630;83;21579;-57
2022/10/18 11:43:33;;;;;;;15.93;3.40;;;;;;;31.54;27.48;95398.92;1699296;83;21605;-57
2022/10/18 11:46:20;;;;;;;11.95;2.92;;;;;;;31.45;28.03;95388.09;1700505;83;21141;-60
2022/10/18 11:48:59;;;;;;;8.03;3.35;;;;;;;31.57;27.18;95380.70;1699484;83;21015;-58
2022/10/18 11:51:52;;;;;;;5.95;2.90;;;;;;;31.80;27.05;95377.17;1698776;83;21020;-55
2022/10/18 11:55:01;;;;;;;6.08;3.27;;;;;;;32.07;26.54;95368.30;1704229;82;21926;-56
2022/10/18 11:57:48;;;;;;;15.00;6.72;;;;;;;32.31;26.13;95367.67;1698949;83;21056;-55
2022/10/18 12:00:39;;;;;;;11.53;2.85;;;;;;;32.23;26.25;95361.25;1705830;83;21168;-56
2022/10/18 12:03:38;;;;;;;13.38;2.70;;;;;;;32.13;26.03;95358.87;1667782;82;21048;-53
2022/10/18 12:06:12;;;;;;;10.32;2.37;;;;;;;32.18;26.48;95350.81;1694391;83;21526;-55